createdAt,value
2018-10-12T00:01:08.019Z,17.50
2018-10-12T00:06:17.696Z,17.60
2018-10-12T00:11:27.338Z,17.70
2018-10-12T00:16:37.161Z,17.70
2018-10-12T00:21:46.645Z,17.70
2018-10-12T00:26:56.526Z,17.70
2018-10-12T00:32:09.991Z,17.60
2018-10-12T00:37:19.461Z,17.60
2018-10-12T00:42:29.046Z,17.70
2018-10-12T00:47:38.488Z,17.70
2018-10-12T00:52:47.848Z,17.70
2018-10-12T00:57:57.422Z,17.60
2018-10-12T01:03:06.821Z,17.60
2018-10-12T01:08:16.333Z,17.60
2018-10-12T01:13:25.715Z,17.60
2018-10-12T01:18:35.164Z,17.60
2018-10-12T01:23:44.776Z,17.60
2018-10-12T01:28:55.055Z,17.50
2018-10-12T01:34:04.504Z,17.60
2018-10-12T01:39:14.763Z,17.60
2018-10-12T01:44:25.588Z,17.60
2018-10-12T01:49:35.074Z,17.60
2018-10-12T01:54:44.660Z,17.60
2018-10-12T01:59:54.168Z,17.70
2018-10-12T02:05:03.513Z,17.70
2018-10-12T02:10:12.860Z,17.60
2018-10-12T02:15:22.408Z,17.50
2018-10-12T02:20:31.902Z,17.50
2018-10-12T02:25:42.041Z,17.60
2018-10-12T02:30:51.436Z,17.50
2018-10-12T02:36:00.756Z,17.40
2018-10-12T02:41:10.256Z,17.30
2018-10-12T02:46:19.728Z,17.30
2018-10-12T02:51:29.207Z,17.30
2018-10-12T02:56:38.708Z,17.20
2018-10-12T03:01:48.063Z,17.10
2018-10-12T03:06:57.771Z,17.20
2018-10-12T03:12:08.207Z,17.30
2018-10-12T03:17:18.234Z,17.20
2018-10-12T03:22:27.898Z,17.10
2018-10-12T03:28:43.220Z,17.10
2018-10-12T03:33:52.956Z,17.20
2018-10-12T03:39:02.560Z,17.10
2018-10-12T03:44:12.159Z,17.00
2018-10-12T03:49:21.735Z,17.10
2018-10-12T03:54:31.112Z,17.00
2018-10-12T03:59:40.528Z,16.90
2018-10-12T04:04:50.124Z,16.80
2018-10-12T04:09:59.661Z,16.70
2018-10-12T04:15:10.263Z,16.70
2018-10-12T04:20:19.738Z,16.60
2018-10-12T04:25:29.368Z,16.60
2018-10-12T04:30:38.728Z,16.60
2018-10-12T04:35:48.379Z,16.60
2018-10-12T04:41:03.263Z,16.60
2018-10-12T04:46:15.560Z,16.60
2018-10-12T04:51:30.581Z,16.50
2018-10-12T04:56:40.072Z,16.40
2018-10-12T05:01:49.578Z,16.40
2018-10-12T05:06:59.144Z,16.30
2018-10-12T05:12:09.161Z,16.30
2018-10-12T05:17:18.748Z,16.20
2018-10-12T05:22:28.302Z,16.20
2018-10-12T05:27:38.403Z,16.20
2018-10-12T05:32:48.051Z,16.20
2018-10-12T06:34:06.762Z,16.60
2018-10-12T06:39:10.714Z,16.70
2018-10-12T06:44:14.606Z,16.80
2018-10-12T06:49:21.452Z,17.00
2018-10-12T06:54:26.534Z,17.20
2018-10-12T06:59:33.334Z,17.60
2018-10-12T07:04:40.398Z,18.10
2018-10-12T07:09:44.334Z,18.30
2018-10-12T07:14:48.478Z,18.60
2018-10-12T07:19:56.542Z,18.50
2018-10-12T07:25:01.765Z,18.90
2018-10-12T07:30:06.307Z,18.70
2018-10-12T07:35:12.005Z,18.90
2018-10-12T07:40:18.103Z,19.20
2018-10-12T07:45:23.471Z,19.40
2018-10-12T07:50:27.739Z,19.30
2018-10-12T07:55:33.614Z,19.40
2018-10-12T08:00:38.545Z,19.70
2018-10-12T08:05:43.735Z,19.80
2018-10-12T08:10:49.332Z,20.40
2018-10-12T08:15:56.298Z,21.10
2018-10-12T08:21:00.556Z,21.40
2018-10-12T08:26:11.926Z,21.80
2018-10-12T08:31:17.703Z,22.70
2018-10-12T08:36:26.623Z,22.20
2018-10-12T08:41:34.504Z,23.20
2018-10-12T08:46:39.045Z,22.50
2018-10-12T08:51:56.453Z,22.60
2018-10-12T08:57:01.064Z,22.70
2018-10-12T09:02:08.805Z,22.60
2018-10-12T09:07:14.889Z,23.30
2018-10-12T09:12:19.722Z,22.80
2018-10-12T09:17:32.708Z,23.60
2018-10-12T09:22:38.283Z,23.50
2018-10-12T09:27:44.370Z,23.60
2018-10-12T09:32:48.326Z,22.80
2018-10-12T09:37:53.292Z,23.40
2018-10-12T09:43:03.911Z,22.70
2018-10-12T09:48:08.171Z,24.20
2018-10-12T09:53:14.153Z,25.00
2018-10-12T09:58:18.137Z,24.20
2018-10-12T10:03:31.273Z,24.90
2018-10-12T10:08:35.874Z,24.60
2018-10-12T10:13:40.095Z,24.80
2018-10-12T10:18:45.781Z,25.50
2018-10-12T10:23:51.886Z,24.80
2018-10-12T10:28:56.433Z,25.60
2018-10-12T10:34:01.046Z,25.00
2018-10-12T10:39:09.935Z,26.30
2018-10-12T10:44:14.961Z,26.40
2018-10-12T10:49:19.918Z,26.40
2018-10-12T10:54:25.989Z,25.80
2018-10-12T10:59:32.998Z,26.80
2018-10-12T11:04:37.594Z,26.30
2018-10-12T11:09:41.963Z,28.10
2018-10-12T11:14:45.961Z,26.80
2018-10-12T11:19:49.913Z,27.20
2018-10-12T11:24:54.249Z,27.80
2018-10-12T11:29:58.640Z,27.70
2018-10-12T11:35:03.559Z,27.30
2018-10-12T11:40:14.393Z,28.20
2018-10-12T11:45:26.933Z,30.40
2018-10-12T11:50:30.837Z,28.70
2018-10-12T11:55:35.349Z,27.50
2018-10-12T12:00:43.361Z,28.00
2018-10-12T12:05:47.788Z,29.40
2018-10-12T12:10:52.057Z,28.60
2018-10-12T12:15:56.445Z,27.50
2018-10-12T12:21:00.928Z,28.20
2018-10-12T12:26:06.228Z,27.70
2018-10-12T12:31:10.902Z,28.40
2018-10-12T12:36:15.119Z,28.50
2018-10-12T12:41:19.575Z,29.80
2018-10-12T12:46:23.471Z,29.70
2018-10-12T12:51:29.507Z,27.80
2018-10-12T12:56:34.856Z,29.00
2018-10-12T13:01:39.286Z,29.50
2018-10-12T13:06:48.031Z,29.20
2018-10-12T13:11:53.560Z,30.00
2018-10-12T13:16:58.551Z,28.60
2018-10-12T13:22:03.706Z,28.60
2018-10-12T13:27:07.657Z,29.20
2018-10-12T13:32:11.720Z,28.90
2018-10-12T13:37:17.263Z,29.30
2018-10-12T13:42:21.708Z,29.10
2018-10-12T13:47:26.119Z,29.20
2018-10-12T13:52:30.005Z,27.70
2018-10-12T13:57:33.915Z,28.70
2018-10-12T14:02:38.952Z,29.30
2018-10-12T14:07:44.021Z,27.80
2018-10-12T14:12:48.316Z,28.50
2018-10-12T14:17:53.538Z,28.70
2018-10-12T14:23:01.822Z,27.60
2018-10-12T14:28:06.725Z,27.80
2018-10-12T14:33:15.900Z,27.70
2018-10-12T14:38:20.699Z,28.00
2018-10-12T14:43:27.656Z,27.80
2018-10-12T14:48:31.738Z,28.50
2018-10-12T14:53:36.512Z,29.10
2018-10-12T14:58:42.944Z,28.90
2018-10-12T15:03:52.760Z,28.80
2018-10-12T15:08:58.196Z,28.40
2018-10-12T15:14:02.068Z,28.50
2018-10-12T15:19:06.780Z,27.80
2018-10-12T15:24:14.063Z,27.70
2018-10-12T15:29:18.704Z,27.50
2018-10-12T15:34:24.311Z,27.50
2018-10-12T15:39:29.192Z,26.50
2018-10-12T15:44:37.828Z,26.20
2018-10-12T15:49:44.901Z,26.00
2018-10-12T15:54:50.429Z,25.90
2018-10-12T15:59:56.718Z,25.60
2018-10-12T16:05:00.675Z,25.50
2018-10-12T16:10:07.495Z,25.30
2018-10-12T16:15:13.010Z,25.10
2018-10-12T16:20:17.787Z,24.90
2018-10-12T16:26:14.705Z,24.80
2018-10-12T16:31:20.373Z,23.10
2018-10-12T16:36:24.677Z,24.50
2018-10-12T16:41:30.578Z,24.30
2018-10-12T16:46:38.609Z,24.20
2018-10-12T16:51:43.506Z,24.00
2018-10-12T16:56:50.366Z,24.00
2018-10-12T17:01:55.972Z,23.90
2018-10-12T17:07:00.504Z,23.80
2018-10-12T17:12:04.346Z,23.70
2018-10-12T17:17:08.630Z,23.40
2018-10-12T17:22:13.709Z,23.40
2018-10-12T17:27:17.576Z,23.20
2018-10-12T17:32:22.693Z,23.00
2018-10-12T17:37:27.881Z,22.90
2018-10-12T17:42:31.958Z,22.80
2018-10-12T17:47:36.345Z,22.70
2018-10-12T17:52:40.217Z,22.60
2018-10-12T17:57:45.520Z,22.50
2018-10-12T18:02:49.662Z,22.40
2018-10-12T18:07:55.945Z,22.20
2018-10-12T18:13:00.110Z,22.00
2018-10-12T18:18:04.780Z,22.00
2018-10-12T18:23:09.608Z,21.90
2018-10-12T18:28:16.898Z,21.70
2018-10-12T18:33:21.434Z,21.60
2018-10-12T18:38:25.303Z,21.60
2018-10-12T18:43:29.353Z,21.40
2018-10-12T18:48:37.013Z,21.30
2018-10-12T18:53:45.327Z,21.30
2018-10-12T18:58:50.160Z,21.20
2018-10-12T19:03:53.995Z,21.10
2018-10-12T19:08:58.013Z,21.00
2018-10-12T19:14:03.134Z,20.90
2018-10-12T19:19:07.896Z,20.90
2018-10-12T19:24:12.624Z,20.80
2018-10-12T19:29:19.182Z,20.70
2018-10-12T19:34:24.899Z,20.70
2018-10-12T19:39:30.181Z,20.70
2018-10-12T19:44:34.355Z,20.70
2018-10-12T19:49:38.563Z,20.70
2018-10-12T19:54:42.610Z,20.70
2018-10-12T19:59:47.200Z,20.60
2018-10-12T20:04:51.102Z,20.50
2018-10-12T20:09:55.795Z,20.50
2018-10-12T20:14:59.847Z,20.50
2018-10-12T20:20:04.329Z,20.40
2018-10-12T20:25:09.268Z,20.40
2018-10-12T20:30:13.568Z,20.40
2018-10-12T20:35:17.916Z,20.30
2018-10-12T20:40:22.503Z,20.30
2018-10-12T20:45:29.614Z,20.20
2018-10-12T20:50:33.753Z,20.20
2018-10-12T20:55:37.742Z,20.20
2018-10-12T21:00:43.047Z,20.20
2018-10-12T21:05:48.499Z,20.20
2018-10-12T21:10:52.887Z,20.20
2018-10-12T21:15:56.780Z,20.20
2018-10-12T21:21:01.871Z,20.30
2018-10-12T21:26:07.886Z,20.30
2018-10-12T21:31:12.462Z,20.30
2018-10-12T21:36:16.842Z,20.30
2018-10-12T21:41:21.048Z,20.20
2018-10-12T21:46:26.142Z,20.20
2018-10-12T21:51:30.868Z,20.20
2018-10-12T21:56:34.835Z,20.20
2018-10-12T22:01:40.535Z,20.10
2018-10-12T22:06:45.216Z,20.10
2018-10-12T22:11:50.387Z,20.20
2018-10-12T22:16:54.207Z,20.20
2018-10-12T22:21:58.166Z,20.10
2018-10-12T22:27:02.018Z,20.20
2018-10-12T22:32:06.051Z,20.20
2018-10-12T22:37:10.066Z,20.20
2018-10-12T22:42:15.181Z,20.20
2018-10-12T22:47:19.618Z,20.30
2018-10-12T22:52:23.559Z,20.30
2018-10-12T22:57:27.900Z,20.20
2018-10-12T23:02:32.818Z,20.20
2018-10-12T23:07:40.496Z,20.20
2018-10-12T23:12:45.111Z,20.20
2018-10-12T23:17:50.055Z,20.20
2018-10-12T23:22:55.226Z,20.20
2018-10-12T23:28:01.952Z,20.20
2018-10-12T23:33:18.341Z,20.20
2018-10-12T23:38:22.200Z,20.10
2018-10-12T23:43:26.632Z,20.10
2018-10-12T23:48:31.314Z,20.10
2018-10-12T23:53:36.202Z,20.10
2018-10-12T23:58:40.067Z,20.00
